Time;durP1;ratioP1;P1;durP2;ratioP2;P2;SDS_P1;SDS_P2;PMS_P1;PMS_P2;Temp;Humidity;BMP_temperature;BMP_pressure;BME280_temperature;BME280_humidity;BME280_pressure;Samples;Min_cycle;Max_cycle;Signal;HPM_P1;HPM_P2
2021/07/31 00:00:38;;;;;;;0.00;0.00;;;16.80;99.90;;;;;;5045106;28;20049;-88
2021/07/31 00:03:26;;;;;;;0.00;0.00;;;16.70;99.90;;;;;;5049255;28;20044;-91
2021/07/31 00:06:14;;;;;;;0.00;0.00;;;16.70;99.90;;;;;;5053293;28;20045;-89
2021/07/31 00:09:02;;;;;;;0.00;0.00;;;16.70;99.90;;;;;;5049618;28;20120;-89
2021/07/31 00:11:49;;;;;;;0.00;0.00;;;16.60;99.90;;;;;;5054767;28;20041;-90
2021/07/31 00:14:37;;;;;;;0.00;0.00;;;16.50;99.90;;;;;;5039125;28;20045;-87
2021/07/31 00:17:24;;;;;;;0.00;0.00;;;16.50;99.90;;;;;;5053431;28;20044;-88
2021/07/31 00:20:11;;;;;;;0.00;0.00;;;16.50;99.90;;;;;;5052619;28;20063;-87
2021/07/31 00:22:59;;;;;;;0.00;0.00;;;16.40;99.90;;;;;;5054297;28;20128;-89
2021/07/31 00:25:47;;;;;;;0.00;0.00;;;16.30;99.90;;;;;;5045045;28;20106;-87
2021/07/31 00:28:34;;;;;;;0.00;0.00;;;16.30;99.90;;;;;;5046338;28;20047;-87
2021/07/31 00:31:21;;;;;;;0.00;0.00;;;16.40;99.90;;;;;;5046401;28;20517;-87
2021/07/31 00:34:08;;;;;;;0.00;0.00;;;16.30;99.90;;;;;;5056310;28;20044;-87
2021/07/31 00:36:55;;;;;;;0.00;0.00;;;16.30;99.90;;;;;;5037868;28;20041;-88
2021/07/31 00:39:43;;;;;;;0.00;0.00;;;16.20;99.90;;;;;;5055115;28;20059;-87
2021/07/31 00:42:31;;;;;;;0.00;0.00;;;16.20;99.90;;;;;;5053943;28;20120;-88
2021/07/31 00:45:18;;;;;;;0.00;0.00;;;16.10;99.90;;;;;;5064673;28;20045;-87
2021/07/31 00:48:06;;;;;;;0.00;0.00;;;16.10;99.90;;;;;;5056927;28;20635;-88
2021/07/31 00:50:53;;;;;;;0.00;0.00;;;16.10;99.90;;;;;;5056376;28;20082;-87
2021/07/31 00:53:41;;;;;;;0.00;0.00;;;16.00;99.90;;;;;;5055060;28;20120;-87
2021/07/31 00:56:31;;;;;;;0.00;0.00;;;15.90;99.90;;;;;;5052785;28;20041;-88
2021/07/31 00:59:20;;;;;;;0.00;0.00;;;15.90;99.90;;;;;;5053936;28;20049;-87
2021/07/31 01:02:07;;;;;;;0.00;0.00;;;15.90;99.90;;;;;;5056586;28;20565;-87
2021/07/31 01:04:54;;;;;;;0.00;0.00;;;15.90;99.90;;;;;;5057001;28;20051;-89
2021/07/31 01:07:42;;;;;;;0.00;0.00;;;15.80;99.90;;;;;;5052920;28;20127;-88
2021/07/31 01:10:31;;;;;;;0.00;0.00;;;15.80;99.90;;;;;;5041502;28;20053;-87
2021/07/31 01:13:21;;;;;;;0.00;0.00;;;15.80;99.90;;;;;;5059782;28;20077;-90
2021/07/31 01:16:08;;;;;;;0.00;0.00;;;15.70;99.90;;;;;;5052803;28;20037;-90
2021/07/31 01:18:55;;;;;;;0.10;0.10;;;15.60;99.90;;;;;;5056989;28;20497;-89
2021/07/31 01:21:45;;;;;;;0.00;0.00;;;15.60;99.90;;;;;;5058684;28;20052;-89
2021/07/31 01:24:32;;;;;;;0.00;0.00;;;15.50;99.90;;;;;;5062411;28;20071;-88
2021/07/31 01:27:19;;;;;;;0.00;0.00;;;15.50;99.90;;;;;;5054302;28;20045;-90
2021/07/31 01:30:07;;;;;;;0.00;0.00;;;15.50;99.90;;;;;;5060048;28;20455;-89
2021/07/31 01:32:54;;;;;;;0.00;0.00;;;15.50;99.90;;;;;;5052491;28;20045;-90
2021/07/31 01:35:42;;;;;;;0.00;0.00;;;15.50;99.90;;;;;;5053803;28;20082;-87
2021/07/31 01:38:30;;;;;;;0.00;0.00;;;15.50;99.90;;;;;;5059268;28;20095;-87
2021/07/31 01:41:18;;;;;;;0.00;0.00;;;15.30;99.90;;;;;;5058497;28;20048;-88
2021/07/31 01:44:05;;;;;;;0.00;0.00;;;15.30;99.90;;;;;;5059250;28;20127;-88
2021/07/31 01:46:52;;;;;;;0.00;0.00;;;;;;;;;;5054110;28;20090;-87
2021/07/31 01:49:40;;;;;;;0.00;0.00;;;15.40;99.90;;;;;;5051951;28;20107;-88
2021/07/31 01:52:27;;;;;;;0.00;0.00;;;15.40;99.90;;;;;;5052754;28;20093;-88
2021/07/31 01:55:15;;;;;;;0.00;0.00;;;15.40;99.90;;;;;;5054360;28;20048;-87
2021/07/31 01:58:02;;;;;;;0.00;0.00;;;15.40;99.90;;;;;;5055255;28;20090;-87
2021/07/31 02:00:52;;;;;;;0.00;0.00;;;15.40;99.90;;;;;;5047645;28;20048;-86
2021/07/31 02:03:39;;;;;;;0.00;0.00;;;15.40;99.90;;;;;;5055545;28;20040;-87
2021/07/31 02:06:26;;;;;;;0.00;0.00;;;15.40;99.90;;;;;;5056485;28;20123;-87
2021/07/31 02:09:14;;;;;;;0.00;0.00;;;;;;;;;;5058105;28;20123;-87
2021/07/31 02:12:03;;;;;;;0.00;0.00;;;15.10;99.90;;;;;;5050135;28;20042;-87
2021/07/31 02:14:50;;;;;;;0.00;0.00;;;15.00;99.90;;;;;;5053607;28;20530;-87
2021/07/31 02:17:37;;;;;;;0.00;0.00;;;15.00;99.90;;;;;;5053514;28;20040;-87
2021/07/31 02:20:24;;;;;;;0.00;0.00;;;15.00;99.90;;;;;;5057603;28;20621;-87
2021/07/31 02:23:11;;;;;;;0.00;0.00;;;15.00;99.90;;;;;;5072851;28;20049;-86
2021/07/31 02:25:59;;;;;;;0.00;0.00;;;14.90;99.90;;;;;;5053496;28;20036;-87
2021/07/31 02:28:47;;;;;;;0.00;0.00;;;15.00;99.90;;;;;;5052165;28;20037;-87
2021/07/31 02:31:34;;;;;;;0.00;0.00;;;14.90;99.90;;;;;;5049905;28;20123;-87
2021/07/31 02:34:21;;;;;;;0.00;0.00;;;15.00;99.90;;;;;;5057759;28;20052;-87
2021/07/31 02:37:08;;;;;;;0.00;0.00;;;14.90;99.90;;;;;;5049915;28;20509;-86
2021/07/31 02:39:55;;;;;;;0.00;0.00;;;14.90;99.90;;;;;;5057385;28;20068;-87
2021/07/31 02:42:43;;;;;;;0.00;0.00;;;14.90;99.90;;;;;;5053846;28;20055;-88
2021/07/31 02:45:31;;;;;;;0.00;0.00;;;14.90;99.90;;;;;;5041816;28;20116;-87
2021/07/31 02:48:18;;;;;;;0.00;0.00;;;15.00;99.90;;;;;;5058137;28;20132;-87
2021/07/31 02:51:07;;;;;;;0.00;0.00;;;14.90;99.90;;;;;;5063845;28;20123;-88
2021/07/31 02:53:54;;;;;;;0.00;0.00;;;15.00;99.90;;;;;;5055206;28;20127;-88
2021/07/31 02:56:41;;;;;;;0.00;0.00;;;15.10;99.90;;;;;;5058593;28;20032;-87
2021/07/31 02:59:28;;;;;;;0.00;0.00;;;15.10;99.90;;;;;;5045932;28;20036;-87
2021/07/31 03:02:16;;;;;;;0.00;0.00;;;15.10;99.90;;;;;;5048489;28;20059;-88
2021/07/31 03:05:05;;;;;;;0.00;0.00;;;15.20;99.90;;;;;;5051602;28;20073;-88
2021/07/31 03:07:52;;;;;;;0.00;0.00;;;;;;;;;;5052223;28;20047;-87
2021/07/31 03:10:39;;;;;;;0.00;0.00;;;15.30;99.90;;;;;;5046982;28;20045;-88
2021/07/31 03:13:27;;;;;;;0.00;0.00;;;15.30;99.90;;;;;;5044478;28;20429;-88
2021/07/31 03:16:14;;;;;;;0.00;0.00;;;15.20;99.90;;;;;;5054301;28;20036;-88
2021/07/31 03:19:02;;;;;;;0.00;0.00;;;15.30;99.90;;;;;;5051571;28;20127;-87
2021/07/31 03:21:49;;;;;;;0.00;0.00;;;15.40;99.90;;;;;;5046070;28;20100;-88
2021/07/31 03:24:37;;;;;;;0.00;0.00;;;16.40;99.90;;;;;;5055837;28;20052;-87
2021/07/31 03:27:24;;;;;;;0.00;0.00;;;15.50;99.90;;;;;;5056620;28;20040;-87
2021/07/31 03:30:12;;;;;;;0.00;0.00;;;15.40;99.90;;;;;;5057149;28;20064;-88
2021/07/31 03:32:59;;;;;;;0.00;0.00;;;15.40;99.90;;;;;;5058170;28;20080;-87
2021/07/31 03:35:47;;;;;;;0.00;0.00;;;15.40;99.90;;;;;;5057199;28;20045;-87
2021/07/31 03:38:34;;;;;;;0.00;0.00;;;15.40;99.90;;;;;;5058296;28;20071;-88
2021/07/31 03:41:21;;;;;;;0.00;0.00;;;15.30;99.90;;;;;;5056809;28;20430;-87
2021/07/31 03:44:09;;;;;;;0.00;0.00;;;15.30;99.90;;;;;;5055195;28;20048;-88
2021/07/31 03:46:56;;;;;;;0.00;0.00;;;15.30;99.90;;;;;;5057843;28;20111;-88
2021/07/31 03:49:43;;;;;;;0.00;0.00;;;15.30;99.90;;;;;;5054313;28;20048;-85
2021/07/31 03:52:31;;;;;;;0.00;0.00;;;15.20;99.90;;;;;;5066529;28;20049;-88
2021/07/31 03:55:19;;;;;;;0.00;0.00;;;15.10;99.90;;;;;;5037995;28;20044;-88
2021/07/31 03:58:06;;;;;;;0.00;0.00;;;15.20;99.90;;;;;;5060635;28;20387;-87
2021/07/31 04:00:53;;;;;;;0.00;0.00;;;15.20;99.90;;;;;;5057069;28;20051;-88
2021/07/31 04:03:40;;;;;;;0.00;0.00;;;15.30;99.90;;;;;;5052123;28;20048;-88
2021/07/31 04:06:27;;;;;;;0.00;0.00;;;15.20;99.90;;;;;;5055746;28;20411;-88
2021/07/31 04:09:16;;;;;;;0.00;0.00;;;15.20;99.90;;;;;;5052166;28;20123;-88
2021/07/31 04:12:04;;;;;;;0.00;0.00;;;15.10;99.90;;;;;;5057682;28;20478;-87
2021/07/31 04:14:51;;;;;;;0.00;0.00;;;15.20;99.90;;;;;;5044751;28;20045;-88
2021/07/31 04:17:38;;;;;;;0.00;0.00;;;15.10;99.90;;;;;;5046146;28;20106;-88
2021/07/31 04:20:25;;;;;;;0.00;0.00;;;15.30;99.90;;;;;;5056227;28;20119;-86
2021/07/31 04:23:12;;;;;;;0.00;0.00;;;15.20;99.90;;;;;;5052172;28;20124;-89
2021/07/31 04:26:08;;;;;;;0.00;0.00;;;16.70;99.90;;;;;;5053069;28;20154;-89
2021/07/31 04:28:56;;;;;;;0.00;0.00;;;15.20;99.90;;;;;;5047098;28;20041;-88
2021/07/31 04:31:43;;;;;;;0.00;0.00;;;15.30;99.90;;;;;;5051831;28;20048;-88
2021/07/31 04:34:31;;;;;;;0.00;0.00;;;15.30;99.90;;;;;;5051731;28;20056;-88
2021/07/31 04:37:18;;;;;;;0.00;0.00;;;15.30;99.90;;;;;;5055317;28;20135;-90
2021/07/31 04:40:07;;;;;;;0.00;0.00;;;15.30;99.90;;;;;;5052080;28;20037;-89
2021/07/31 04:42:55;;;;;;;0.00;0.00;;;15.30;99.90;;;;;;5067585;28;20056;-89
2021/07/31 04:45:42;;;;;;;0.00;0.00;;;15.30;99.90;;;;;;5046305;28;20075;-87
2021/07/31 04:48:30;;;;;;;0.00;0.00;;;15.30;99.90;;;;;;5055697;28;20047;-89
2021/07/31 04:51:17;;;;;;;0.00;0.00;;;15.30;99.90;;;;;;5060407;28;20202;-88
2021/07/31 04:54:04;;;;;;;0.00;0.00;;;15.40;99.90;;;;;;5042209;28;20052;-88
2021/07/31 04:56:51;;;;;;;0.00;0.00;;;15.40;99.90;;;;;;5047628;28;20063;-87
2021/07/31 04:59:40;;;;;;;0.00;0.00;;;15.40;99.90;;;;;;5060737;28;20048;-88
2021/07/31 05:02:30;;;;;;;0.00;0.00;;;15.40;99.90;;;;;;5057017;28;20051;-88
2021/07/31 05:05:18;;;;;;;0.00;0.00;;;15.50;99.90;;;;;;5058270;28;20055;-88
2021/07/31 05:08:05;;;;;;;0.00;0.00;;;15.50;99.90;;;;;;5062254;28;20051;-87
2021/07/31 05:10:52;;;;;;;0.00;0.00;;;15.60;99.90;;;;;;5059994;28;20040;-87
2021/07/31 05:13:39;;;;;;;0.00;0.00;;;15.70;99.90;;;;;;5061859;28;20063;-88
2021/07/31 05:16:28;;;;;;;0.00;0.00;;;15.80;99.90;;;;;;5068482;28;20048;-88
2021/07/31 05:19:16;;;;;;;0.00;0.00;;;16.00;99.90;;;;;;5059880;28;20044;-88
2021/07/31 05:22:03;;;;;;;0.00;0.00;;;16.10;99.90;;;;;;5060937;28;20472;-89
2021/07/31 05:24:53;;;;;;;0.03;0.03;;;16.30;99.90;;;;;;5061060;28;20051;-88
2021/07/31 05:27:41;;;;;;;0.00;0.00;;;16.40;99.90;;;;;;5061633;28;20155;-88
2021/07/31 05:30:28;;;;;;;0.00;0.00;;;16.50;99.90;;;;;;5060367;28;20141;-90
2021/07/31 05:33:16;;;;;;;0.00;0.00;;;16.60;99.90;;;;;;5053366;28;20041;-88
2021/07/31 05:36:08;;;;;;;0.00;0.00;;;16.60;99.90;;;;;;5061400;28;20421;-87
2021/07/31 05:38:55;;;;;;;0.00;0.00;;;16.60;99.90;;;;;;5074270;28;20058;-87
2021/07/31 05:41:42;;;;;;;0.00;0.00;;;16.70;99.90;;;;;;5060854;28;20123;-88
2021/07/31 05:44:29;;;;;;;0.00;0.00;;;16.70;99.90;;;;;;5061721;28;20119;-87
2021/07/31 05:47:16;;;;;;;0.00;0.00;;;16.80;99.90;;;;;;5061389;28;20044;-90
2021/07/31 05:50:07;;;;;;;0.00;0.00;;;18.20;99.90;;;;;;5060831;28;20048;-88
2021/07/31 05:52:54;;;;;;;0.00;0.00;;;16.80;99.90;;;;;;5060209;28;20170;-88
2021/07/31 05:55:41;;;;;;;0.00;0.00;;;16.90;99.90;;;;;;5059877;28;20166;-88
2021/07/31 05:58:28;;;;;;;0.00;0.00;;;16.90;99.90;;;;;;5059700;28;20072;-88
2021/07/31 06:01:15;;;;;;;0.00;0.00;;;17.10;99.90;;;;;;5060280;28;20045;-88
2021/07/31 06:04:03;;;;;;;0.00;0.00;;;17.20;99.90;;;;;;5060362;28;20041;-88
2021/07/31 06:06:52;;;;;;;0.00;0.00;;;17.30;99.90;;;;;;5060478;28;20051;-87
2021/07/31 06:09:40;;;;;;;0.00;0.00;;;17.30;99.90;;;;;;5059661;28;20048;-87
2021/07/31 06:12:27;;;;;;;0.00;0.00;;;17.30;99.90;;;;;;5060247;28;20044;-88
2021/07/31 06:15:14;;;;;;;0.00;0.00;;;17.30;99.90;;;;;;5059601;28;20048;-88
2021/07/31 06:18:01;;;;;;;0.00;0.00;;;17.20;99.90;;;;;;5060108;28;20127;-88
2021/07/31 06:20:48;;;;;;;0.00;0.00;;;17.20;99.90;;;;;;5059327;28;20056;-87
2021/07/31 06:23:37;;;;;;;0.00;0.00;;;17.30;99.90;;;;;;5060310;28;20048;-88
2021/07/31 06:26:24;;;;;;;0.00;0.00;;;17.40;99.90;;;;;;5060015;28;20045;-88
2021/07/31 06:29:11;;;;;;;0.00;0.00;;;17.60;99.90;;;;;;5058933;28;20071;-85
2021/07/31 06:31:58;;;;;;;0.00;0.00;;;17.60;99.90;;;;;;5059681;28;20047;-89
2021/07/31 06:34:45;;;;;;;0.00;0.00;;;17.70;99.90;;;;;;5059544;28;20425;-88
2021/07/31 06:37:32;;;;;;;0.00;0.00;;;17.70;99.90;;;;;;5059680;28;20432;-87
2021/07/31 06:40:21;;;;;;;0.00;0.00;;;17.70;99.90;;;;;;5058943;28;20409;-86
2021/07/31 06:43:08;;;;;;;0.00;0.00;;;17.60;99.90;;;;;;5059307;28;20052;-87
2021/07/31 06:45:55;;;;;;;0.00;0.00;;;17.60;99.90;;;;;;5058808;28;20055;-88
2021/07/31 06:48:43;;;;;;;0.00;0.00;;;17.50;99.90;;;;;;5059467;28;20044;-88
2021/07/31 06:51:30;;;;;;;0.00;0.00;;;17.50;99.90;;;;;;5059879;28;20044;-87
2021/07/31 06:54:17;;;;;;;0.00;0.00;;;17.40;99.90;;;;;;5060095;28;20476;-87
2021/07/31 06:57:08;;;;;;;0.00;0.00;;;17.40;99.90;;;;;;5058903;28;20045;-88
2021/07/31 06:59:55;;;;;;;0.00;0.00;;;17.50;99.90;;;;;;5059240;28;20037;-89
2021/07/31 07:02:42;;;;;;;0.00;0.00;;;17.50;99.90;;;;;;5058333;28;20048;-88
2021/07/31 07:05:29;;;;;;;0.00;0.00;;;17.70;99.90;;;;;;5058536;28;20048;-88
2021/07/31 07:08:16;;;;;;;0.00;0.00;;;17.80;99.90;;;;;;5040137;28;20134;-87
2021/07/31 07:11:05;;;;;;;0.00;0.00;;;17.90;99.90;;;;;;5058506;28;20189;-87
2021/07/31 07:13:59;;;;;;;0.00;0.00;;;18.00;99.90;;;;;;5059728;28;20062;-87
2021/07/31 07:16:46;;;;;;;0.00;0.00;;;18.00;99.90;;;;;;5059277;28;20044;-86
2021/07/31 07:19:33;;;;;;;0.00;0.00;;;17.90;99.90;;;;;;5058765;28;20279;-87
2021/07/31 07:22:21;;;;;;;0.00;0.00;;;17.70;99.90;;;;;;5059550;28;20127;-87
2021/07/31 07:25:09;;;;;;;0.00;0.00;;;17.60;99.90;;;;;;5058419;28;20419;-88
2021/07/31 07:27:56;;;;;;;0.00;0.00;;;17.60;99.90;;;;;;5067932;28;20044;-88
2021/07/31 07:30:45;;;;;;;0.00;0.00;;;17.60;99.90;;;;;;5060990;28;20568;-88
2021/07/31 07:33:33;;;;;;;0.00;0.00;;;17.70;99.90;;;;;;5058874;28;20053;-87
2021/07/31 07:36:20;;;;;;;0.00;0.00;;;17.80;99.90;;;;;;5059253;28;20037;-88
2021/07/31 07:39:07;;;;;;;0.00;0.00;;;17.90;99.90;;;;;;5058519;28;20039;-87
2021/07/31 07:41:54;;;;;;;0.00;0.00;;;18.00;99.90;;;;;;5058642;28;20051;-87
2021/07/31 07:44:41;;;;;;;0.00;0.00;;;18.20;99.90;;;;;;5058289;28;20041;-88
2021/07/31 07:47:30;;;;;;;0.00;0.00;;;18.40;99.90;;;;;;5058547;28;20044;-88
2021/07/31 07:50:17;;;;;;;0.00;0.00;;;18.70;99.90;;;;;;5051896;28;20051;-86
2021/07/31 07:53:04;;;;;;;0.00;0.00;;;18.80;99.90;;;;;;5038334;28;20135;-86
2021/07/31 07:55:51;;;;;;;0.00;0.00;;;19.00;99.90;;;;;;5053362;28;20124;-88
2021/07/31 07:58:39;;;;;;;0.00;0.00;;;19.10;99.90;;;;;;5038456;28;20124;-88
2021/07/31 08:01:26;;;;;;;0.00;0.00;;;19.00;99.90;;;;;;5049281;28;20041;-87
2021/07/31 08:04:15;;;;;;;0.00;0.00;;;19.10;99.90;;;;;;5064051;28;20053;-87
2021/07/31 08:07:03;;;;;;;0.00;0.00;;;19.20;99.90;;;;;;5057299;28;20068;-89
2021/07/31 08:09:50;;;;;;;0.00;0.00;;;19.00;99.90;;;;;;5061037;28;20045;-86
2021/07/31 08:12:37;;;;;;;0.00;0.00;;;18.90;99.90;;;;;;5061800;28;20494;-87
2021/07/31 08:15:24;;;;;;;0.00;0.00;;;18.90;99.90;;;;;;5062582;28;20078;-88
2021/07/31 08:18:11;;;;;;;0.00;0.00;;;19.00;99.90;;;;;;5062267;28;20124;-87
2021/07/31 08:21:00;;;;;;;0.00;0.00;;;19.20;99.90;;;;;;5062887;28;20058;-87
2021/07/31 08:23:47;;;;;;;0.00;0.00;;;19.10;99.90;;;;;;5062547;28;20051;-88
2021/07/31 08:26:34;;;;;;;0.00;0.00;;;19.10;99.90;;;;;;5061450;28;20521;-87
2021/07/31 08:29:21;;;;;;;0.00;0.00;;;19.40;99.90;;;;;;5061969;28;20079;-86
2021/07/31 08:32:08;;;;;;;0.00;0.00;;;19.50;99.90;;;;;;5062230;28;20051;-88
2021/07/31 08:34:55;;;;;;;0.00;0.00;;;19.40;99.90;;;;;;5061620;28;20056;-88
2021/07/31 08:37:44;;;;;;;0.00;0.00;;;19.30;99.90;;;;;;5062029;28;20423;-87
2021/07/31 08:40:33;;;;;;;0.00;0.00;;;19.20;99.90;;;;;;5061603;28;20044;-88
2021/07/31 08:43:21;;;;;;;0.00;0.00;;;19.20;99.90;;;;;;5059668;28;20505;-88
2021/07/31 08:46:10;;;;;;;0.00;0.00;;;19.20;99.90;;;;;;5061110;28;20044;-87
2021/07/31 08:48:57;;;;;;;0.00;0.00;;;19.50;99.90;;;;;;5060852;28;20128;-88
2021/07/31 08:51:46;;;;;;;0.00;0.00;;;19.70;99.90;;;;;;5061709;28;20052;-88
2021/07/31 08:54:38;;;;;;;0.00;0.00;;;19.80;99.90;;;;;;5041649;28;20125;-88
2021/07/31 08:57:25;;;;;;;0.00;0.00;;;20.00;99.90;;;;;;5040906;28;20041;-88
2021/07/31 09:00:13;;;;;;;0.00;0.00;;;20.10;99.90;;;;;;5061790;28;20135;-87
2021/07/31 09:03:00;;;;;;;0.00;0.00;;;20.10;99.90;;;;;;5061402;28;20048;-87
2021/07/31 09:05:48;;;;;;;0.00;0.00;;;20.20;99.90;;;;;;5061529;28;20067;-87
2021/07/31 09:08:52;;;;;;;0.00;0.00;;;20.20;99.90;;;;;;5061369;28;20124;-90
2021/07/31 09:11:57;;;;;;;0.00;0.00;;;20.20;99.90;;;;;;5041996;28;20083;-87
2021/07/31 09:14:45;;;;;;;0.00;0.00;;;20.30;99.90;;;;;;5056196;28;20051;-90
2021/07/31 09:17:34;;;;;;;0.00;0.00;;;20.20;99.90;;;;;;5061001;28;20040;-88
2021/07/31 09:20:22;;;;;;;0.00;0.00;;;20.10;99.90;;;;;;5059266;28;20225;-87
2021/07/31 09:23:09;;;;;;;0.00;0.00;;;20.10;99.90;;;;;;5060584;28;20052;-88
2021/07/31 09:25:59;;;;;;;0.00;0.00;;;20.00;99.90;;;;;;5060054;28;20055;-87
2021/07/31 09:28:59;;;;;;;0.00;0.00;;;20.00;99.90;;;;;;5058744;28;20127;-88
2021/07/31 09:31:54;;;;;;;0.00;0.00;;;20.20;99.90;;;;;;5061223;28;20041;-86
2021/07/31 09:34:45;;;;;;;0.00;0.00;;;20.40;99.90;;;;;;5060986;28;20123;-87
2021/07/31 09:37:33;;;;;;;0.00;0.00;;;20.60;99.90;;;;;;5060579;28;20033;-86
2021/07/31 09:40:30;;;;;;;0.00;0.00;;;20.70;99.90;;;;;;5060342;28;20145;-87
2021/07/31 09:43:17;;;;;;;0.00;0.00;;;20.80;99.90;;;;;;5051816;28;20052;-87
2021/07/31 09:46:29;;;;;;;0.00;0.00;;;20.70;99.40;;;;;;5060021;28;20124;-86
2021/07/31 09:49:18;;;;;;;0.00;0.00;;;20.70;99.90;;;;;;5060049;28;20040;-87
2021/07/31 09:52:15;;;;;;;0.00;0.00;;;21.20;99.90;;;;;;5059880;28;20059;-87
2021/07/31 09:55:02;;;;;;;0.00;0.00;;;20.60;99.90;;;;;;5060482;28;20047;-87
2021/07/31 09:57:50;;;;;;;0.00;0.00;;;20.70;99.60;;;;;;5060892;28;20224;-87
2021/07/31 10:00:40;;;;;;;0.00;0.00;;;20.60;99.20;;;;;;5059061;28;20048;-88
2021/07/31 10:03:30;;;;;;;0.00;0.00;;;20.60;99.80;;;;;;5059453;28;20043;-87
2021/07/31 10:06:18;;;;;;;0.00;0.00;;;20.80;99.90;;;;;;5056452;28;20044;-86
2021/07/31 10:09:06;;;;;;;0.00;0.00;;;20.90;98.90;;;;;;5055562;28;20041;-87
2021/07/31 10:11:55;;;;;;;0.00;0.00;;;21.00;99.50;;;;;;5044605;28;20494;-86
2021/07/31 10:14:43;;;;;;;0.00;0.00;;;21.00;99.40;;;;;;5054532;28;20514;-88
2021/07/31 10:17:31;;;;;;;0.00;0.00;;;21.00;98.70;;;;;;5059766;28;20088;-87
2021/07/31 10:20:24;;;;;;;0.00;0.00;;;21.00;98.90;;;;;;5060180;28;20094;-88
2021/07/31 10:23:11;;;;;;;0.00;0.00;;;20.90;99.10;;;;;;5060544;28;20536;-87
2021/07/31 10:26:07;;;;;;;0.00;0.00;;;20.70;99.30;;;;;;5060251;28;20044;-87
2021/07/31 10:28:54;;;;;;;0.00;0.00;;;20.70;99.70;;;;;;5040010;28;20589;-86
2021/07/31 10:31:42;;;;;;;0.00;0.00;;;21.70;99.90;;;;;;5038834;28;20051;-84
2021/07/31 10:34:49;;;;;;;0.00;0.00;;;21.20;99.50;;;;;;5055436;28;20123;-87
2021/07/31 10:37:45;;;;;;;0.00;0.00;;;21.40;99.40;;;;;;5056285;28;20055;-88
2021/07/31 10:40:56;;;;;;;0.00;0.00;;;21.60;99.20;;;;;;5058972;28;20516;-88
2021/07/31 10:44:08;;;;;;;0.00;0.00;;;21.60;99.30;;;;;;5054213;28;20049;-87
2021/07/31 10:47:33;;;;;;;0.00;0.00;;;21.50;98.80;;;;;;5065217;28;20085;-87
2021/07/31 10:50:36;;;;;;;0.00;0.00;;;21.20;99.20;;;;;;5058728;28;20056;-87
2021/07/31 10:53:50;;;;;;;0.00;0.00;;;21.10;99.50;;;;;;5059359;28;20053;-86
2021/07/31 10:56:57;;;;;;;0.00;0.00;;;20.60;98.80;;;;;;5051132;28;20051;-88
2021/07/31 11:00:22;;;;;;;0.00;0.00;;;20.40;99.30;;;;;;5050978;28;20524;-85
2021/07/31 11:03:41;;;;;;;0.00;0.00;;;20.20;99.40;;;;;;5051449;28;20044;-87
2021/07/31 11:07:06;;;;;;;0.00;0.00;;;20.20;99.90;;;;;;5052135;28;20052;-88
2021/07/31 11:10:31;;;;;;;0.00;0.00;;;20.00;99.90;;;;;;5052873;28;20115;-87
2021/07/31 11:13:51;;;;;;;0.00;0.00;;;20.00;99.90;;;;;;5055828;28;20041;-86
2021/07/31 11:16:39;;;;;;;0.00;0.00;;;19.90;99.90;;;;;;5058337;28;20036;-88
2021/07/31 11:19:33;;;;;;;0.00;0.00;;;20.00;99.90;;;;;;5058225;28;20072;-89
2021/07/31 11:22:24;;;;;;;0.00;0.00;;;20.20;99.90;;;;;;5054723;28;20435;-86
2021/07/31 11:25:11;;;;;;;0.00;0.00;;;20.50;99.90;;;;;;5060265;28;20044;-87
2021/07/31 11:28:00;;;;;;;0.00;0.00;;;20.70;99.60;;;;;;5057711;28;20044;-87
2021/07/31 11:30:49;;;;;;;0.00;0.00;;;20.70;99.30;;;;;;5057928;28;20054;-88
2021/07/31 11:33:39;;;;;;;0.00;0.00;;;20.80;99.20;;;;;;5047794;28;20403;-88
2021/07/31 11:36:26;;;;;;;0.00;0.00;;;20.80;99.40;;;;;;5044800;28;20082;-86
2021/07/31 11:39:13;;;;;;;0.00;0.00;;;20.70;98.80;;;;;;5057724;28;20043;-87
2021/07/31 11:42:00;;;;;;;0.00;0.00;;;20.60;99.40;;;;;;5051477;28;20046;-87
2021/07/31 11:44:47;;;;;;;0.00;0.00;;;20.70;99.60;;;;;;5046301;28;20494;-87
2021/07/31 11:47:37;;;;;;;0.00;0.00;;;20.80;99.40;;;;;;5056107;28;20044;-87
2021/07/31 11:50:25;;;;;;;0.00;0.00;;;21.20;99.40;;;;;;5057625;28;20421;-87
2021/07/31 11:53:24;;;;;;;0.00;0.00;;;21.20;98.80;;;;;;5057832;28;20044;-88
2021/07/31 11:56:14;;;;;;;0.00;0.00;;;21.30;98.60;;;;;;5047183;28;20574;-87
2021/07/31 11:59:01;;;;;;;0.00;0.00;;;21.50;98.50;;;;;;5058492;28;20048;-87
2021/07/31 12:01:52;;;;;;;0.00;0.00;;;21.30;98.50;;;;;;5037655;28;20464;-87
2021/07/31 12:04:42;;;;;;;0.00;0.00;;;21.00;98.70;;;;;;5037348;28;20051;-87
2021/07/31 12:07:30;;;;;;;0.00;0.00;;;20.50;99.80;;;;;;5040240;28;20737;-86
2021/07/31 12:10:17;;;;;;;0.00;0.00;;;20.50;99.90;;;;;;5054312;28;20044;-87
2021/07/31 12:13:08;;;;;;;0.00;0.00;;;20.70;99.90;;;;;;5055668;28;20490;-88
2021/07/31 12:15:56;;;;;;;0.00;0.00;;;20.80;99.90;;;;;;5049225;28;20174;-88
2021/07/31 12:18:49;;;;;;;0.00;0.00;;;20.80;99.90;;;;;;5037691;28;20110;-87
2021/07/31 12:21:38;;;;;;;0.00;0.00;;;20.60;99.90;;;;;;5042963;28;20051;-89
2021/07/31 12:24:25;;;;;;;0.00;0.00;;;20.50;99.60;;;;;;5058362;28;20072;-89
2021/07/31 12:27:12;;;;;;;0.00;0.00;;;20.60;99.90;;;;;;5072723;28;20044;-87
2021/07/31 12:30:18;;;;;;;0.00;0.00;;;21.00;99.90;;;;;;5043940;28;20037;-89
2021/07/31 12:33:15;;;;;;;0.00;0.00;;;21.20;99.00;;;;;;5056022;28;20051;-87
2021/07/31 12:36:03;;;;;;;0.00;0.00;;;21.60;99.10;;;;;;5058390;28;20187;-88
2021/07/31 12:38:54;;;;;;;0.00;0.00;;;21.60;98.80;;;;;;5057644;28;20037;-87
2021/07/31 12:41:41;;;;;;;0.00;0.00;;;21.60;98.80;;;;;;5047591;28;20516;-89
2021/07/31 12:44:30;;;;;;;0.00;0.00;;;21.20;99.00;;;;;;5057608;28;20050;-87
2021/07/31 12:47:17;;;;;;;0.00;0.00;;;21.20;99.00;;;;;;5057696;28;20080;-90
2021/07/31 12:50:04;;;;;;;0.00;0.00;;;21.10;99.00;;;;;;5057724;28;20036;-89
2021/07/31 12:52:53;;;;;;;0.00;0.00;;;20.80;98.60;;;;;;5046217;28;20058;-90
2021/07/31 12:55:42;;;;;;;0.00;0.00;;;20.60;99.20;;;;;;5059472;28;20360;-90
2021/07/31 12:58:29;;;;;;;0.00;0.00;;;20.30;99.90;;;;;;5061167;28;20047;-89
2021/07/31 13:01:16;;;;;;;0.00;0.00;;;19.60;99.90;;;;;;5061774;28;20049;-88
2021/07/31 13:04:04;;;;;;;0.00;0.00;;;19.30;99.90;;;;;;5061052;28;20053;-89
2021/07/31 13:06:52;;;;;;;0.00;0.00;;;18.80;99.90;;;;;;5075763;28;20108;-89
2021/07/31 13:09:41;;;;;;;0.00;0.00;;;18.60;99.90;;;;;;5052847;28;20123;-87
2021/07/31 13:12:31;;;;;;;0.00;0.00;;;18.60;99.90;;;;;;5055074;28;20616;-89
2021/07/31 13:15:21;;;;;;;;;;;18.80;99.90;;;;;;5062370;28;20042;-87
2021/07/31 13:18:10;;;;;;;;;;;18.80;99.90;;;;;;5062564;28;20120;-89
2021/07/31 13:20:57;;;;;;;0.00;0.00;;;19.00;99.90;;;;;;5061087;28;20011;-89
2021/07/31 13:23:44;;;;;;;0.00;0.00;;;19.10;99.90;;;;;;5060779;28;20047;-88
2021/07/31 13:26:31;;;;;;;0.00;0.00;;;19.10;99.90;;;;;;5061401;28;20055;-89
2021/07/31 13:29:20;;;;;;;0.00;0.00;;;19.90;99.90;;;;;;5041424;28;20044;-89
2021/07/31 13:32:07;;;;;;;0.00;0.00;;;19.20;99.90;;;;;;5051106;28;20524;-87
2021/07/31 13:34:54;;;;;;;0.00;0.00;;;19.40;99.90;;;;;;5047917;28;20142;-89
2021/07/31 13:37:45;;;;;;;0.00;0.00;;;19.90;99.90;;;;;;5060627;28;20131;-88
2021/07/31 13:40:46;;;;;;;0.00;0.00;;;20.20;99.90;;;;;;5059873;28;20510;-87
2021/07/31 13:43:37;;;;;;;0.00;0.00;;;20.60;99.90;;;;;;5059981;28;20044;-87
2021/07/31 13:46:26;;;;;;;0.00;0.00;;;21.10;99.90;;;;;;5062467;28;20119;-87
2021/07/31 13:49:14;;;;;;;0.00;0.00;;;21.50;99.90;;;;;;5060154;28;20051;-87
2021/07/31 13:52:03;;;;;;;0.00;0.00;;;21.70;99.90;;;;;;5060060;28;20493;-87
2021/07/31 13:54:50;;;;;;;0.00;0.00;;;21.60;99.90;;;;;;5059928;28;20047;-88
2021/07/31 13:57:40;;;;;;;0.00;0.00;;;21.60;99.90;;;;;;5060809;28;20041;-87
2021/07/31 14:00:27;;;;;;;0.00;0.00;;;21.70;99.90;;;;;;5057098;28;20119;-86
2021/07/31 14:03:15;;;;;;;0.00;0.00;;;21.70;99.90;;;;;;5040272;28;20045;-88
2021/07/31 14:06:02;;;;;;;0.00;0.00;;;21.60;99.90;;;;;;5048630;28;20049;-86
2021/07/31 14:08:49;;;;;;;0.00;0.00;;;21.70;99.90;;;;;;5060002;28;20057;-88
2021/07/31 14:11:37;;;;;;;0.00;0.00;;;21.70;99.90;;;;;;5054493;28;20150;-88
2021/07/31 14:14:24;;;;;;;0.00;0.00;;;21.80;99.90;;;;;;5059066;28;20432;-88
2021/07/31 14:17:12;;;;;;;0.10;0.00;;;21.80;99.90;;;;;;5054788;28;20154;-86
2021/07/31 14:20:00;;;;;;;0.00;0.00;;;22.00;99.90;;;;;;5057253;28;20041;-88
2021/07/31 14:22:49;;;;;;;0.00;0.00;;;21.80;99.90;;;;;;5058926;28;20409;-86
2021/07/31 14:25:36;;;;;;;0.00;0.00;;;21.60;99.90;;;;;;5059198;28;20170;-87
2021/07/31 14:28:23;;;;;;;0.00;0.00;;;21.50;99.90;;;;;;5039784;28;20040;-88
2021/07/31 14:31:10;;;;;;;0.00;0.00;;;21.50;99.90;;;;;;5042258;28;20044;-87
2021/07/31 14:33:57;;;;;;;0.00;0.00;;;21.40;99.90;;;;;;5040416;28;20195;-87
2021/07/31 14:36:46;;;;;;;0.00;0.00;;;21.70;99.90;;;;;;5057708;28;20044;-87
2021/07/31 14:39:36;;;;;;;0.00;0.00;;;21.90;99.50;;;;;;5059051;28;20041;-87
2021/07/31 14:42:22;;;;;;;;;;;22.10;99.90;;;;;;5059154;28;20420;-88